sensor_id;sensor_type;location;lat;lon;timestamp;temperature;humidity
292;DHT22;23311;48.776;9.162;2023-05-10T00:01:29;14.10;95.50
292;DHT22;23311;48.776;9.162;2023-05-10T00:03:57;14.00;95.50
292;DHT22;23311;48.776;9.162;2023-05-10T00:06:25;14.10;95.50
292;DHT22;23311;48.776;9.162;2023-05-10T00:08:53;14.00;95.50
292;DHT22;23311;48.776;9.162;2023-05-10T00:11:21;13.90;95.50
292;DHT22;23311;48.776;9.162;2023-05-10T00:13:50;13.90;95.50
292;DHT22;23311;48.776;9.162;2023-05-10T00:16:18;13.80;95.50
292;DHT22;23311;48.776;9.162;2023-05-10T00:18:47;13.80;95.50
292;DHT22;23311;48.776;9.162;2023-05-10T00:21:15;13.80;95.50
292;DHT22;23311;48.776;9.162;2023-05-10T00:23:43;13.70;95.50
292;DHT22;23311;48.776;9.162;2023-05-10T00:26:11;13.70;95.50
292;DHT22;23311;48.776;9.162;2023-05-10T00:28:39;13.60;95.50
292;DHT22;23311;48.776;9.162;2023-05-10T00:31:08;13.50;95.50
292;DHT22;23311;48.776;9.162;2023-05-10T00:33:36;13.40;95.50
292;DHT22;23311;48.776;9.162;2023-05-10T00:36:05;13.40;95.50
292;DHT22;23311;48.776;9.162;2023-05-10T00:38:34;13.40;95.50
292;DHT22;23311;48.776;9.162;2023-05-10T00:41:02;13.40;95.50
292;DHT22;23311;48.776;9.162;2023-05-10T00:43:30;13.40;95.50
292;DHT22;23311;48.776;9.162;2023-05-10T00:45:58;13.30;95.50
292;DHT22;23311;48.776;9.162;2023-05-10T00:48:28;13.30;95.50
292;DHT22;23311;48.776;9.162;2023-05-10T00:50:56;13.30;95.50
292;DHT22;23311;48.776;9.162;2023-05-10T00:53:25;13.20;95.50
292;DHT22;23311;48.776;9.162;2023-05-10T00:55:53;13.10;95.50
292;DHT22;23311;48.776;9.162;2023-05-10T00:58:21;13.20;95.50
292;DHT22;23311;48.776;9.162;2023-05-10T01:00:50;13.20;95.50
292;DHT22;23311;48.776;9.162;2023-05-10T01:03:19;13.10;95.50
292;DHT22;23311;48.776;9.162;2023-05-10T01:05:49;13.10;95.50
292;DHT22;23311;48.776;9.162;2023-05-10T01:08:17;13.20;95.50
292;DHT22;23311;48.776;9.162;2023-05-10T01:10:45;13.20;95.50
292;DHT22;23311;48.776;9.162;2023-05-10T01:13:27;13.10;95.50
292;DHT22;23311;48.776;9.162;2023-05-10T01:15:58;13.10;95.50
292;DHT22;23311;48.776;9.162;2023-05-10T01:18:27;13.10;95.50
292;DHT22;23311;48.776;9.162;2023-05-10T01:21:02;13.00;95.50
292;DHT22;23311;48.776;9.162;2023-05-10T01:23:51;13.10;95.50
292;DHT22;23311;48.776;9.162;2023-05-10T01:29:53;13.00;95.50
292;DHT22;23311;48.776;9.162;2023-05-10T01:32:48;12.90;95.50
292;DHT22;23311;48.776;9.162;2023-05-10T01:35:32;13.00;95.50
292;DHT22;23311;48.776;9.162;2023-05-10T01:38:19;12.90;95.50
292;DHT22;23311;48.776;9.162;2023-05-10T01:41:06;12.90;95.50
292;DHT22;23311;48.776;9.162;2023-05-10T01:43:42;12.80;95.50
292;DHT22;23311;48.776;9.162;2023-05-10T01:46:19;12.80;95.50
292;DHT22;23311;48.776;9.162;2023-05-10T01:48:54;12.80;95.50
292;DHT22;23311;48.776;9.162;2023-05-10T01:51:25;12.80;95.50
292;DHT22;23311;48.776;9.162;2023-05-10T01:53:59;12.80;95.50
292;DHT22;23311;48.776;9.162;2023-05-10T01:56:30;12.80;95.50
292;DHT22;23311;48.776;9.162;2023-05-10T01:59:00;12.80;95.50
292;DHT22;23311;48.776;9.162;2023-05-10T02:01:30;12.70;95.50
292;DHT22;23311;48.776;9.162;2023-05-10T02:03:59;12.70;95.50
292;DHT22;23311;48.776;9.162;2023-05-10T02:06:28;12.60;95.50
292;DHT22;23311;48.776;9.162;2023-05-10T02:08:57;12.60;95.50
292;DHT22;23311;48.776;9.162;2023-05-10T02:11:27;12.50;95.50
292;DHT22;23311;48.776;9.162;2023-05-10T02:13:56;12.60;95.50
292;DHT22;23311;48.776;9.162;2023-05-10T02:16:27;12.50;95.50
292;DHT22;23311;48.776;9.162;2023-05-10T02:18:59;12.50;95.50
292;DHT22;23311;48.776;9.162;2023-05-10T02:21:29;12.60;95.50
292;DHT22;23311;48.776;9.162;2023-05-10T02:24:01;12.50;95.50
292;DHT22;23311;48.776;9.162;2023-05-10T02:26:29;12.60;95.50
292;DHT22;23311;48.776;9.162;2023-05-10T02:28:58;12.50;95.50
292;DHT22;23311;48.776;9.162;2023-05-10T02:31:27;12.40;95.50
292;DHT22;23311;48.776;9.162;2023-05-10T02:33:56;12.50;95.50
292;DHT22;23311;48.776;9.162;2023-05-10T02:36:27;12.50;95.50
292;DHT22;23311;48.776;9.162;2023-05-10T02:38:56;12.50;95.50
292;DHT22;23311;48.776;9.162;2023-05-10T02:41:27;12.60;95.50
292;DHT22;23311;48.776;9.162;2023-05-10T02:43:57;12.60;95.50
292;DHT22;23311;48.776;9.162;2023-05-10T02:46:27;12.70;95.50
292;DHT22;23311;48.776;9.162;2023-05-10T02:48:55;12.70;95.50
292;DHT22;23311;48.776;9.162;2023-05-10T02:51:26;12.70;95.50
292;DHT22;23311;48.776;9.162;2023-05-10T02:53:56;12.70;95.50
292;DHT22;23311;48.776;9.162;2023-05-10T02:56:28;12.60;95.50
292;DHT22;23311;48.776;9.162;2023-05-10T02:58:59;12.70;95.50
292;DHT22;23311;48.776;9.162;2023-05-10T03:01:27;12.70;95.50
292;DHT22;23311;48.776;9.162;2023-05-10T03:03:55;12.70;95.50
292;DHT22;23311;48.776;9.162;2023-05-10T03:06:25;12.70;95.50
292;DHT22;23311;48.776;9.162;2023-05-10T03:08:53;12.70;95.50
292;DHT22;23311;48.776;9.162;2023-05-10T03:11:32;12.80;95.50
292;DHT22;23311;48.776;9.162;2023-05-10T03:14:12;12.80;95.50
292;DHT22;23311;48.776;9.162;2023-05-10T03:16:45;12.70;95.50
292;DHT22;23311;48.776;9.162;2023-05-10T03:19:17;12.70;95.50
292;DHT22;23311;48.776;9.162;2023-05-10T03:21:50;12.80;95.50
292;DHT22;23311;48.776;9.162;2023-05-10T03:24:21;12.80;95.50
292;DHT22;23311;48.776;9.162;2023-05-10T03:26:50;12.90;95.50
292;DHT22;23311;48.776;9.162;2023-05-10T03:29:20;12.90;95.50
292;DHT22;23311;48.776;9.162;2023-05-10T03:31:49;12.90;95.50
292;DHT22;23311;48.776;9.162;2023-05-10T03:34:23;12.90;95.50
292;DHT22;23311;48.776;9.162;2023-05-10T03:36:52;12.90;95.50
292;DHT22;23311;48.776;9.162;2023-05-10T03:39:20;12.90;95.50
292;DHT22;23311;48.776;9.162;2023-05-10T03:41:48;13.00;95.50
292;DHT22;23311;48.776;9.162;2023-05-10T03:44:17;13.00;95.50
292;DHT22;23311;48.776;9.162;2023-05-10T03:46:45;13.00;95.50
292;DHT22;23311;48.776;9.162;2023-05-10T03:49:13;12.90;95.50
292;DHT22;23311;48.776;9.162;2023-05-10T03:51:41;12.90;95.50
292;DHT22;23311;48.776;9.162;2023-05-10T03:54:10;12.90;95.50
292;DHT22;23311;48.776;9.162;2023-05-10T03:56:38;13.00;95.50
292;DHT22;23311;48.776;9.162;2023-05-10T03:59:06;13.00;95.50
292;DHT22;23311;48.776;9.162;2023-05-10T04:01:35;13.00;95.50
292;DHT22;23311;48.776;9.162;2023-05-10T04:04:03;12.90;95.50
292;DHT22;23311;48.776;9.162;2023-05-10T04:06:31;12.90;95.50
292;DHT22;23311;48.776;9.162;2023-05-10T04:08:59;12.90;95.50
292;DHT22;23311;48.776;9.162;2023-05-10T04:11:32;13.00;95.50
292;DHT22;23311;48.776;9.162;2023-05-10T04:14:00;13.00;95.50
292;DHT22;23311;48.776;9.162;2023-05-10T04:16:28;13.00;95.50
292;DHT22;23311;48.776;9.162;2023-05-10T04:18:56;13.00;95.50
292;DHT22;23311;48.776;9.162;2023-05-10T04:21:24;13.10;95.50
292;DHT22;23311;48.776;9.162;2023-05-10T04:23:52;13.10;95.50
292;DHT22;23311;48.776;9.162;2023-05-10T04:26:20;13.10;95.50
292;DHT22;23311;48.776;9.162;2023-05-10T04:28:50;13.20;95.50
292;DHT22;23311;48.776;9.162;2023-05-10T04:31:18;13.20;95.50
292;DHT22;23311;48.776;9.162;2023-05-10T04:33:46;13.30;95.50
292;DHT22;23311;48.776;9.162;2023-05-10T04:36:14;13.30;95.50
292;DHT22;23311;48.776;9.162;2023-05-10T04:38:42;13.30;95.50
292;DHT22;23311;48.776;9.162;2023-05-10T04:41:10;13.30;95.50
292;DHT22;23311;48.776;9.162;2023-05-10T04:43:39;13.30;95.50
292;DHT22;23311;48.776;9.162;2023-05-10T04:46:08;13.40;95.50
292;DHT22;23311;48.776;9.162;2023-05-10T04:48:36;13.40;95.50
292;DHT22;23311;48.776;9.162;2023-05-10T04:51:04;13.40;95.50
292;DHT22;23311;48.776;9.162;2023-05-10T04:53:33;13.50;95.50
292;DHT22;23311;48.776;9.162;2023-05-10T04:56:01;13.50;95.50
292;DHT22;23311;48.776;9.162;2023-05-10T04:58:29;13.60;95.50
292;DHT22;23311;48.776;9.162;2023-05-10T05:00:57;13.60;95.50
292;DHT22;23311;48.776;9.162;2023-05-10T05:03:27;13.60;95.50
292;DHT22;23311;48.776;9.162;2023-05-10T05:05:55;13.60;95.50
292;DHT22;23311;48.776;9.162;2023-05-10T05:08:23;13.60;95.50
292;DHT22;23311;48.776;9.162;2023-05-10T05:10:51;13.60;95.50
292;DHT22;23311;48.776;9.162;2023-05-10T05:13:19;13.70;95.50
292;DHT22;23311;48.776;9.162;2023-05-10T05:15:47;13.90;95.50
292;DHT22;23311;48.776;9.162;2023-05-10T05:18:15;14.10;95.50
292;DHT22;23311;48.776;9.162;2023-05-10T05:20:44;14.20;95.50
292;DHT22;23311;48.776;9.162;2023-05-10T05:23:13;14.10;95.50
292;DHT22;23311;48.776;9.162;2023-05-10T05:25:41;14.10;95.50
292;DHT22;23311;48.776;9.162;2023-05-10T05:28:09;14.10;95.50
292;DHT22;23311;48.776;9.162;2023-05-10T05:30:37;14.10;95.50
292;DHT22;23311;48.776;9.162;2023-05-10T05:33:05;14.20;95.50
292;DHT22;23311;48.776;9.162;2023-05-10T05:35:33;14.30;95.50
292;DHT22;23311;48.776;9.162;2023-05-10T05:38:02;14.20;95.50
292;DHT22;23311;48.776;9.162;2023-05-10T05:40:30;14.30;95.50
292;DHT22;23311;48.776;9.162;2023-05-10T05:42:59;14.30;95.50
292;DHT22;23311;48.776;9.162;2023-05-10T05:45:27;14.30;95.50
292;DHT22;23311;48.776;9.162;2023-05-10T05:47:55;14.50;95.50
292;DHT22;23311;48.776;9.162;2023-05-10T05:50:23;14.70;95.50
292;DHT22;23311;48.776;9.162;2023-05-10T05:52:51;14.80;95.50
292;DHT22;23311;48.776;9.162;2023-05-10T05:55:20;14.80;95.50
292;DHT22;23311;48.776;9.162;2023-05-10T05:57:49;14.90;95.50
292;DHT22;23311;48.776;9.162;2023-05-10T06:00:17;14.70;95.50
292;DHT22;23311;48.776;9.162;2023-05-10T06:02:45;14.90;95.50
292;DHT22;23311;48.776;9.162;2023-05-10T06:05:13;15.00;95.50
292;DHT22;23311;48.776;9.162;2023-05-10T06:07:42;15.00;95.50
292;DHT22;23311;48.776;9.162;2023-05-10T06:10:10;15.10;95.50
292;DHT22;23311;48.776;9.162;2023-05-10T06:12:39;15.10;95.50
292;DHT22;23311;48.776;9.162;2023-05-10T06:15:09;15.20;95.50
292;DHT22;23311;48.776;9.162;2023-05-10T06:17:37;15.30;95.50
292;DHT22;23311;48.776;9.162;2023-05-10T06:20:06;15.30;95.50
292;DHT22;23311;48.776;9.162;2023-05-10T06:22:35;15.50;95.50
292;DHT22;23311;48.776;9.162;2023-05-10T06:25:03;15.20;95.50
292;DHT22;23311;48.776;9.162;2023-05-10T06:27:32;15.20;95.50
292;DHT22;23311;48.776;9.162;2023-05-10T06:30:01;15.20;95.50
292;DHT22;23311;48.776;9.162;2023-05-10T06:32:38;15.30;95.50
292;DHT22;23311;48.776;9.162;2023-05-10T06:35:07;15.30;95.50
292;DHT22;23311;48.776;9.162;2023-05-10T06:37:35;15.20;95.50
292;DHT22;23311;48.776;9.162;2023-05-10T06:40:05;15.10;95.50
292;DHT22;23311;48.776;9.162;2023-05-10T06:42:33;14.90;95.50
292;DHT22;23311;48.776;9.162;2023-05-10T06:45:03;14.60;95.50
292;DHT22;23311;48.776;9.162;2023-05-10T06:47:32;14.70;95.50
292;DHT22;23311;48.776;9.162;2023-05-10T06:50:04;14.70;95.50
292;DHT22;23311;48.776;9.162;2023-05-10T06:52:32;14.60;95.50
292;DHT22;23311;48.776;9.162;2023-05-10T06:55:00;14.50;95.50
292;DHT22;23311;48.776;9.162;2023-05-10T06:57:29;14.60;95.50
292;DHT22;23311;48.776;9.162;2023-05-10T06:59:58;14.70;95.50
292;DHT22;23311;48.776;9.162;2023-05-10T07:02:27;14.60;95.50
292;DHT22;23311;48.776;9.162;2023-05-10T07:04:55;14.50;95.50
292;DHT22;23311;48.776;9.162;2023-05-10T07:07:28;14.50;95.50
292;DHT22;23311;48.776;9.162;2023-05-10T07:09:56;14.80;95.50
292;DHT22;23311;48.776;9.162;2023-05-10T07:12:25;15.20;95.50
292;DHT22;23311;48.776;9.162;2023-05-10T07:14:53;15.50;95.50
292;DHT22;23311;48.776;9.162;2023-05-10T07:17:21;15.90;95.50
292;DHT22;23311;48.776;9.162;2023-05-10T07:19:50;16.20;95.50
292;DHT22;23311;48.776;9.162;2023-05-10T07:22:18;16.50;95.50
292;DHT22;23311;48.776;9.162;2023-05-10T07:24:46;16.70;95.50
292;DHT22;23311;48.776;9.162;2023-05-10T07:27:14;17.10;95.50
292;DHT22;23311;48.776;9.162;2023-05-10T07:29:42;17.30;95.50
292;DHT22;23311;48.776;9.162;2023-05-10T07:32:10;17.00;95.50
292;DHT22;23311;48.776;9.162;2023-05-10T07:34:39;16.90;95.50
292;DHT22;23311;48.776;9.162;2023-05-10T07:37:08;17.20;95.50
292;DHT22;23311;48.776;9.162;2023-05-10T07:39:36;17.20;95.50
292;DHT22;23311;48.776;9.162;2023-05-10T07:42:04;17.40;95.50
292;DHT22;23311;48.776;9.162;2023-05-10T07:44:32;17.40;95.50
292;DHT22;23311;48.776;9.162;2023-05-10T07:47:00;17.20;95.50
292;DHT22;23311;48.776;9.162;2023-05-10T07:49:28;17.20;95.50
292;DHT22;23311;48.776;9.162;2023-05-10T07:51:56;17.30;95.50
292;DHT22;23311;48.776;9.162;2023-05-10T07:54:26;17.60;95.50
292;DHT22;23311;48.776;9.162;2023-05-10T07:56:54;17.60;95.50
292;DHT22;23311;48.776;9.162;2023-05-10T07:59:22;17.40;95.50
292;DHT22;23311;48.776;9.162;2023-05-10T08:01:50;17.10;95.50
292;DHT22;23311;48.776;9.162;2023-05-10T08:04:18;17.30;95.50
292;DHT22;23311;48.776;9.162;2023-05-10T08:06:46;17.20;95.50
292;DHT22;23311;48.776;9.162;2023-05-10T08:09:14;17.10;95.50
292;DHT22;23311;48.776;9.162;2023-05-10T08:11:43;16.70;95.50
292;DHT22;23311;48.776;9.162;2023-05-10T08:14:11;16.50;95.50
292;DHT22;23311;48.776;9.162;2023-05-10T08:16:39;16.60;95.50
292;DHT22;23311;48.776;9.162;2023-05-10T08:19:07;16.80;95.50
292;DHT22;23311;48.776;9.162;2023-05-10T08:21:35;17.00;95.50
292;DHT22;23311;48.776;9.162;2023-05-10T08:24:04;17.30;95.50
292;DHT22;23311;48.776;9.162;2023-05-10T08:26:33;17.50;95.50
292;DHT22;23311;48.776;9.162;2023-05-10T08:29:02;17.20;95.50
292;DHT22;23311;48.776;9.162;2023-05-10T08:31:30;17.30;95.50
292;DHT22;23311;48.776;9.162;2023-05-10T08:33:58;17.60;95.50
292;DHT22;23311;48.776;9.162;2023-05-10T08:36:27;17.10;95.50
292;DHT22;23311;48.776;9.162;2023-05-10T08:38:55;16.90;95.50
292;DHT22;23311;48.776;9.162;2023-05-10T08:41:23;16.70;95.50
292;DHT22;23311;48.776;9.162;2023-05-10T08:43:52;16.90;95.50
292;DHT22;23311;48.776;9.162;2023-05-10T08:46:22;17.10;95.50
292;DHT22;23311;48.776;9.162;2023-05-10T08:48:51;16.80;95.50
292;DHT22;23311;48.776;9.162;2023-05-10T08:51:23;17.10;95.50
292;DHT22;23311;48.776;9.162;2023-05-10T08:53:53;17.60;95.50
292;DHT22;23311;48.776;9.162;2023-05-10T08:56:21;17.70;95.50
292;DHT22;23311;48.776;9.162;2023-05-10T08:58:50;18.20;95.50
292;DHT22;23311;48.776;9.162;2023-05-10T09:01:21;18.50;95.50
292;DHT22;23311;48.776;9.162;2023-05-10T09:03:50;18.80;95.50
292;DHT22;23311;48.776;9.162;2023-05-10T09:06:19;19.10;95.40
292;DHT22;23311;48.776;9.162;2023-05-10T09:08:47;18.60;95.20
292;DHT22;23311;48.776;9.162;2023-05-10T09:11:16;18.50;95.50
292;DHT22;23311;48.776;9.162;2023-05-10T09:13:45;18.80;95.50
292;DHT22;23311;48.776;9.162;2023-05-10T09:16:14;19.20;94.80
292;DHT22;23311;48.776;9.162;2023-05-10T09:18:49;19.10;94.60
292;DHT22;23311;48.776;9.162;2023-05-10T09:21:19;18.90;95.10
292;DHT22;23311;48.776;9.162;2023-05-10T09:23:48;18.40;94.30
292;DHT22;23311;48.776;9.162;2023-05-10T09:26:22;17.40;95.50
292;DHT22;23311;48.776;9.162;2023-05-10T09:28:51;17.30;95.50
292;DHT22;23311;48.776;9.162;2023-05-10T09:31:19;17.50;95.50
292;DHT22;23311;48.776;9.162;2023-05-10T09:33:49;17.30;95.50
292;DHT22;23311;48.776;9.162;2023-05-10T09:36:18;17.40;95.50
292;DHT22;23311;48.776;9.162;2023-05-10T09:38:47;17.50;95.50
292;DHT22;23311;48.776;9.162;2023-05-10T09:41:17;17.40;95.20
292;DHT22;23311;48.776;9.162;2023-05-10T09:43:45;17.70;95.50
292;DHT22;23311;48.776;9.162;2023-05-10T09:46:13;18.30;94.50
292;DHT22;23311;48.776;9.162;2023-05-10T09:48:43;18.30;93.90
292;DHT22;23311;48.776;9.162;2023-05-10T09:51:19;18.50;93.20
292;DHT22;23311;48.776;9.162;2023-05-10T09:53:48;18.50;92.60
292;DHT22;23311;48.776;9.162;2023-05-10T09:56:36;18.70;91.70
292;DHT22;23311;48.776;9.162;2023-05-10T09:59:06;19.80;90.30
292;DHT22;23311;48.776;9.162;2023-05-10T10:01:35;20.30;88.60
292;DHT22;23311;48.776;9.162;2023-05-10T10:04:04;19.90;88.60
292;DHT22;23311;48.776;9.162;2023-05-10T10:06:37;19.80;89.30
292;DHT22;23311;48.776;9.162;2023-05-10T10:09:06;19.70;89.50
292;DHT22;23311;48.776;9.162;2023-05-10T10:11:36;18.90;91.70
292;DHT22;23311;48.776;9.162;2023-05-10T10:14:04;18.70;93.60
292;DHT22;23311;48.776;9.162;2023-05-10T10:16:33;18.40;94.70
292;DHT22;23311;48.776;9.162;2023-05-10T10:19:01;18.30;94.60
292;DHT22;23311;48.776;9.162;2023-05-10T10:21:29;18.60;94.30
292;DHT22;23311;48.776;9.162;2023-05-10T10:23:59;18.70;92.90
292;DHT22;23311;48.776;9.162;2023-05-10T10:26:27;18.60;91.80
292;DHT22;23311;48.776;9.162;2023-05-10T10:29:06;18.50;91.40
292;DHT22;23311;48.776;9.162;2023-05-10T10:31:40;19.00;90.40
292;DHT22;23311;48.776;9.162;2023-05-10T10:34:11;19.50;89.00
292;DHT22;23311;48.776;9.162;2023-05-10T10:36:46;19.50;88.70
292;DHT22;23311;48.776;9.162;2023-05-10T10:39:15;18.80;89.40
292;DHT22;23311;48.776;9.162;2023-05-10T10:41:50;18.60;90.20
292;DHT22;23311;48.776;9.162;2023-05-10T10:44:38;18.70;89.50
292;DHT22;23311;48.776;9.162;2023-05-10T10:47:28;18.70;89.40
292;DHT22;23311;48.776;9.162;2023-05-10T10:50:04;18.60;90.70
292;DHT22;23311;48.776;9.162;2023-05-10T10:52:33;18.30;90.90
292;DHT22;23311;48.776;9.162;2023-05-10T10:55:05;17.60;92.80
292;DHT22;23311;48.776;9.162;2023-05-10T10:57:46;17.40;92.90
292;DHT22;23311;48.776;9.162;2023-05-10T11:00:23;17.10;93.30
292;DHT22;23311;48.776;9.162;2023-05-10T11:02:54;16.70;93.40
292;DHT22;23311;48.776;9.162;2023-05-10T11:05:34;16.80;93.10
292;DHT22;23311;48.776;9.162;2023-05-10T11:08:17;17.00;92.50
292;DHT22;23311;48.776;9.162;2023-05-10T11:11:04;16.90;92.00
292;DHT22;23311;48.776;9.162;2023-05-10T11:13:38;16.60;92.60
292;DHT22;23311;48.776;9.162;2023-05-10T11:16:14;16.30;93.00
292;DHT22;23311;48.776;9.162;2023-05-10T11:18:54;16.30;93.20
292;DHT22;23311;48.776;9.162;2023-05-10T11:21:24;16.30;93.20
292;DHT22;23311;48.776;9.162;2023-05-10T11:23:54;16.60;93.00
292;DHT22;23311;48.776;9.162;2023-05-10T11:26:26;16.70;92.80
292;DHT22;23311;48.776;9.162;2023-05-10T11:28:57;16.80;92.90
292;DHT22;23311;48.776;9.162;2023-05-10T11:31:27;17.30;91.40
292;DHT22;23311;48.776;9.162;2023-05-10T11:33:58;17.60;90.10
292;DHT22;23311;48.776;9.162;2023-05-10T11:36:27;17.80;90.30
292;DHT22;23311;48.776;9.162;2023-05-10T11:38:56;17.50;90.50
292;DHT22;23311;48.776;9.162;2023-05-10T11:41:28;18.20;89.20
292;DHT22;23311;48.776;9.162;2023-05-10T11:43:57;18.60;88.10
292;DHT22;23311;48.776;9.162;2023-05-10T11:46:27;18.30;88.20
292;DHT22;23311;48.776;9.162;2023-05-10T11:48:58;17.80;89.90
292;DHT22;23311;48.776;9.162;2023-05-10T11:51:28;17.70;90.10
292;DHT22;23311;48.776;9.162;2023-05-10T11:53:57;17.50;90.50
292;DHT22;23311;48.776;9.162;2023-05-10T11:56:26;17.00;91.40
292;DHT22;23311;48.776;9.162;2023-05-10T11:58:55;16.70;92.90
292;DHT22;23311;48.776;9.162;2023-05-10T12:01:25;16.60;92.40
292;DHT22;23311;48.776;9.162;2023-05-10T12:03:56;16.70;93.00
292;DHT22;23311;48.776;9.162;2023-05-10T12:06:27;16.80;92.50
292;DHT22;23311;48.776;9.162;2023-05-10T12:08:56;16.80;92.30
292;DHT22;23311;48.776;9.162;2023-05-10T12:11:26;16.80;92.50
292;DHT22;23311;48.776;9.162;2023-05-10T12:13:55;17.10;91.30
292;DHT22;23311;48.776;9.162;2023-05-10T12:16:25;17.40;90.80
292;DHT22;23311;48.776;9.162;2023-05-10T12:18:56;18.10;89.60
292;DHT22;23311;48.776;9.162;2023-05-10T12:21:25;18.10;88.40
292;DHT22;23311;48.776;9.162;2023-05-10T12:23:58;18.10;89.00
292;DHT22;23311;48.776;9.162;2023-05-10T12:26:29;17.60;90.00
292;DHT22;23311;48.776;9.162;2023-05-10T12:29:12;17.70;90.00
292;DHT22;23311;48.776;9.162;2023-05-10T12:31:53;17.70;89.50
292;DHT22;23311;48.776;9.162;2023-05-10T12:34:26;17.90;88.30
292;DHT22;23311;48.776;9.162;2023-05-10T12:36:55;17.50;88.70
292;DHT22;23311;48.776;9.162;2023-05-10T12:39:23;17.80;87.60
292;DHT22;23311;48.776;9.162;2023-05-10T12:41:53;17.90;85.80
292;DHT22;23311;48.776;9.162;2023-05-10T12:44:21;18.00;84.70
292;DHT22;23311;48.776;9.162;2023-05-10T12:46:49;17.80;85.30
292;DHT22;23311;48.776;9.162;2023-05-10T12:49:17;17.80;85.70
292;DHT22;23311;48.776;9.162;2023-05-10T12:51:46;17.90;85.80
292;DHT22;23311;48.776;9.162;2023-05-10T12:54:14;18.20;85.60
292;DHT22;23311;48.776;9.162;2023-05-10T12:56:43;18.20;85.60
292;DHT22;23311;48.776;9.162;2023-05-10T12:59:12;18.20;85.60
292;DHT22;23311;48.776;9.162;2023-05-10T13:01:40;18.00;87.10
292;DHT22;23311;48.776;9.162;2023-05-10T13:04:08;17.60;88.00
292;DHT22;23311;48.776;9.162;2023-05-10T13:06:36;17.30;89.10
292;DHT22;23311;48.776;9.162;2023-05-10T13:09:04;16.80;90.30
292;DHT22;23311;48.776;9.162;2023-05-10T13:11:32;16.90;90.60
292;DHT22;23311;48.776;9.162;2023-05-10T13:14:01;17.10;90.50
292;DHT22;23311;48.776;9.162;2023-05-10T13:16:31;17.20;89.60
292;DHT22;23311;48.776;9.162;2023-05-10T13:18:59;17.30;88.90
292;DHT22;23311;48.776;9.162;2023-05-10T13:21:28;17.20;88.80
292;DHT22;23311;48.776;9.162;2023-05-10T13:23:56;17.30;88.40
292;DHT22;23311;48.776;9.162;2023-05-10T13:26:24;17.50;88.00
292;DHT22;23311;48.776;9.162;2023-05-10T13:28:53;17.80;87.40
292;DHT22;23311;48.776;9.162;2023-05-10T13:31:22;18.30;86.20
292;DHT22;23311;48.776;9.162;2023-05-10T13:33:51;18.40;84.90
292;DHT22;23311;48.776;9.162;2023-05-10T13:36:20;18.50;85.10
292;DHT22;23311;48.776;9.162;2023-05-10T13:38:48;17.90;86.10
292;DHT22;23311;48.776;9.162;2023-05-10T13:41:16;18.10;86.50
292;DHT22;23311;48.776;9.162;2023-05-10T13:43:44;18.20;85.00
292;DHT22;23311;48.776;9.162;2023-05-10T13:46:12;18.10;85.10
292;DHT22;23311;48.776;9.162;2023-05-10T13:48:40;18.10;85.30
292;DHT22;23311;48.776;9.162;2023-05-10T13:51:09;18.10;85.70
292;DHT22;23311;48.776;9.162;2023-05-10T13:53:37;18.40;84.80
292;DHT22;23311;48.776;9.162;2023-05-10T13:56:06;18.30;84.50
292;DHT22;23311;48.776;9.162;2023-05-10T13:58:34;17.80;85.60
292;DHT22;23311;48.776;9.162;2023-05-10T14:01:03;17.80;86.40
292;DHT22;23311;48.776;9.162;2023-05-10T14:03:31;18.30;84.70
292;DHT22;23311;48.776;9.162;2023-05-10T14:06:00;18.50;82.70
292;DHT22;23311;48.776;9.162;2023-05-10T14:08:29;18.00;81.80
292;DHT22;23311;48.776;9.162;2023-05-10T14:10:57;18.10;82.40
292;DHT22;23311;48.776;9.162;2023-05-10T14:13:25;18.50;81.60
292;DHT22;23311;48.776;9.162;2023-05-10T14:15:54;18.50;81.00
292;DHT22;23311;48.776;9.162;2023-05-10T14:18:22;19.10;79.80
292;DHT22;23311;48.776;9.162;2023-05-10T14:20:50;19.00;79.70
292;DHT22;23311;48.776;9.162;2023-05-10T14:23:18;18.90;79.40
292;DHT22;23311;48.776;9.162;2023-05-10T14:25:52;18.40;80.50
292;DHT22;23311;48.776;9.162;2023-05-10T14:28:20;18.70;80.60
292;DHT22;23311;48.776;9.162;2023-05-10T14:30:49;18.50;81.00
292;DHT22;23311;48.776;9.162;2023-05-10T14:33:17;18.50;80.80
292;DHT22;23311;48.776;9.162;2023-05-10T14:35:46;18.80;80.80
292;DHT22;23311;48.776;9.162;2023-05-10T14:38:14;19.00;80.20
292;DHT22;23311;48.776;9.162;2023-05-10T14:40:42;19.20;80.10
292;DHT22;23311;48.776;9.162;2023-05-10T14:43:12;19.50;79.20
292;DHT22;23311;48.776;9.162;2023-05-10T14:45:40;19.10;79.70
292;DHT22;23311;48.776;9.162;2023-05-10T14:48:08;18.80;80.70
292;DHT22;23311;48.776;9.162;2023-05-10T14:50:39;18.60;81.00
292;DHT22;23311;48.776;9.162;2023-05-10T14:53:07;19.00;80.50
292;DHT22;23311;48.776;9.162;2023-05-10T14:55:35;19.10;79.20
292;DHT22;23311;48.776;9.162;2023-05-10T14:58:05;18.90;80.30
292;DHT22;23311;48.776;9.162;2023-05-10T15:00:34;18.40;81.50
292;DHT22;23311;48.776;9.162;2023-05-10T15:03:03;18.10;82.60
292;DHT22;23311;48.776;9.162;2023-05-10T15:05:31;18.20;82.60
292;DHT22;23311;48.776;9.162;2023-05-10T15:08:00;18.60;81.70
292;DHT22;23311;48.776;9.162;2023-05-10T15:10:28;19.10;80.50
292;DHT22;23311;48.776;9.162;2023-05-10T15:12:59;19.20;80.30
292;DHT22;23311;48.776;9.162;2023-05-10T15:15:27;18.90;80.80
292;DHT22;23311;48.776;9.162;2023-05-10T15:17:56;19.20;81.00
292;DHT22;23311;48.776;9.162;2023-05-10T15:20:24;19.30;80.80
292;DHT22;23311;48.776;9.162;2023-05-10T15:22:52;19.30;80.80
292;DHT22;23311;48.776;9.162;2023-05-10T15:25:20;19.10;81.00
292;DHT22;23311;48.776;9.162;2023-05-10T15:27:50;18.80;81.50
292;DHT22;23311;48.776;9.162;2023-05-10T15:30:18;18.50;82.30
292;DHT22;23311;48.776;9.162;2023-05-10T15:32:46;18.30;82.80
292;DHT22;23311;48.776;9.162;2023-05-10T15:35:18;18.40;83.20
292;DHT22;23311;48.776;9.162;2023-05-10T15:37:47;18.50;82.10
292;DHT22;23311;48.776;9.162;2023-05-10T15:40:18;18.90;81.80
292;DHT22;23311;48.776;9.162;2023-05-10T15:42:47;19.00;81.20
292;DHT22;23311;48.776;9.162;2023-05-10T15:45:15;19.00;80.70
292;DHT22;23311;48.776;9.162;2023-05-10T15:47:43;19.00;80.80
292;DHT22;23311;48.776;9.162;2023-05-10T15:50:12;18.80;80.60
292;DHT22;23311;48.776;9.162;2023-05-10T15:52:41;18.30;81.30
292;DHT22;23311;48.776;9.162;2023-05-10T15:55:09;18.00;82.80
292;DHT22;23311;48.776;9.162;2023-05-10T15:57:39;18.00;82.10
292;DHT22;23311;48.776;9.162;2023-05-10T16:00:10;18.20;81.30
292;DHT22;23311;48.776;9.162;2023-05-10T16:02:38;18.30;80.90
292;DHT22;23311;48.776;9.162;2023-05-10T16:05:07;18.50;80.00
292;DHT22;23311;48.776;9.162;2023-05-10T16:07:36;18.40;79.40
292;DHT22;23311;48.776;9.162;2023-05-10T16:10:08;18.10;80.60
292;DHT22;23311;48.776;9.162;2023-05-10T16:12:37;18.00;80.70
292;DHT22;23311;48.776;9.162;2023-05-10T16:15:06;18.10;81.10
292;DHT22;23311;48.776;9.162;2023-05-10T16:17:34;18.20;80.80
292;DHT22;23311;48.776;9.162;2023-05-10T16:20:03;18.30;80.70
292;DHT22;23311;48.776;9.162;2023-05-10T16:22:32;18.30;80.40